Αναφορές πλησιέστερων αεροδρομίων

 

LGSO - Ermoupoli, Syros, GR
Distance from station: ΝΑ 3km
Ενημερώθηκε: 15/04/2024 07:50
Αίθριος
Αίθριος
 Ανεμος από Β
Άνεμος: Β 19 km/h
Θερμοκρασία: 24°C
Σημείο Δρόσου: 10°C
Υγρασία: 41%
Βαρόμετρο: 1019 hPa
Περίληψη: Αίθριος
Visibility: greater than 10 km
2024/04/15 07:50 LGSO 150750Z 01010KT CAVOK 24/10 Q1019
LGAV - Athens, GR
Distance from station: Β 104km
Ενημερώθηκε: 15/04/2024 07:50
Αίθριος
Αίθριος
 Ανεμος από varies
Άνεμος: varies 4 km/h
Θερμοκρασία: 26°C
Σημείο Δρόσου: 7°C
Υγρασία: 30%
Βαρόμετρο: 1020 hPa
Περίληψη: Αίθριος
Visibility: greater than 10 km
2024/04/15 07:50 LGAV 150750Z VRB02KT CAVOK 26/07 Q1020 NOSIG